Time,TemperatureF,DewpointF,PressureIn,WindDirection,WindDirectionDegrees,WindSpeedMPH,WindSpeedGustMPH,Humidity,HourlyPrecipIn,Conditions,Clouds,dailyrainin,SoftwareType,DateUTC
2013-05-27 00:05:00,65.4,58.0,30.20,SW,215,0.0,-999.0,78,-99.99,,,0.00,weatherlink.com 1.10,2013-05-27 05:05:00,
2013-05-27 00:20:00,64.5,59.0,30.20,SW,215,0.0,-999.0,81,-99.99,,,0.00,weatherlink.com 1.10,2013-05-27 05:20:00,
2013-05-27 00:35:00,64.2,58.0,30.19,SW,215,0.0,-999.0,81,-99.99,,,0.00,weatherlink.com 1.10,2013-05-27 05:35:00,
2013-05-27 00:50:00,64.0,58.0,30.19,SW,215,0.0,-999.0,81,-99.99,,,0.00,weatherlink.com 1.10,2013-05-27 05:50:00,
2013-05-27 01:05:00,64.1,58.0,30.18,SW,215,0.0,-999.0,80,-99.99,,,0.00,weatherlink.com 1.10,2013-05-27 06:05:00,
2013-05-27 01:20:00,64.4,58.0,30.19,SW,215,2.0,-999.0,80,-99.99,,,0.00,weatherlink.com 1.10,2013-05-27 06:20:00,
2013-05-27 01:35:00,63.7,57.0,30.19,SW,215,0.0,-999.0,79,-99.99,,,0.00,weatherlink.com 1.10,2013-05-27 06:35:00,
2013-05-27 01:50:00,64.6,57.0,30.19,SW,215,0.0,-999.0,75,-99.99,,,0.00,weatherlink.com 1.10,2013-05-27 06:50:00,
2013-05-27 02:05:00,64.4,57.0,30.18,SW,215,0.0,-999.0,76,-99.99,,,0.00,weatherlink.com 1.10,2013-05-27 07:05:00,
2013-05-27 02:20:00,64.0,57.0,30.18,SW,215,0.0,-999.0,79,-99.99,,,0.00,weatherlink.com 1.10,2013-05-27 07:20:00,
2013-05-27 02:35:00,62.0,57.0,30.18,SW,215,0.0,-999.0,84,-99.99,,,0.00,weatherlink.com 1.10,2013-05-27 07:35:00,
2013-05-27 02:50:00,61.4,57.0,30.18,SW,215,0.0,-999.0,85,-99.99,,,0.00,weatherlink.com 1.10,2013-05-27 07:50:00,
2013-05-27 03:05:00,61.1,57.0,30.18,SW,215,0.0,-999.0,85,-99.99,,,0.00,weatherlink.com 1.10,2013-05-27 08:05:00,
2013-05-27 03:20:00,61.0,57.0,30.18,SW,215,0.0,-999.0,85,-99.99,,,0.00,weatherlink.com 1.10,2013-05-27 08:20:00,
2013-05-27 03:35:00,61.4,57.0,30.18,SW,215,0.0,-999.0,84,-99.99,,,0.00,weatherlink.com 1.10,2013-05-27 08:35:00,
2013-05-27 03:50:00,61.5,56.0,30.19,SW,215,0.0,-999.0,83,-99.99,,,0.00,weatherlink.com 1.10,2013-05-27 08:50:00,
2013-05-27 04:05:00,61.5,56.0,30.19,SW,215,0.0,-999.0,82,-99.99,,,0.00,weatherlink.com 1.10,2013-05-27 09:05:00,
2013-05-27 04:20:00,61.3,56.0,30.19,SW,215,2.0,-999.0,83,-99.99,,,0.00,weatherlink.com 1.10,2013-05-27 09:20:00,
2013-05-27 04:35:00,60.4,56.0,30.19,SW,215,0.0,-999.0,85,-99.99,,,0.00,weatherlink.com 1.10,2013-05-27 09:35:00,
2013-05-27 04:50:00,59.9,56.0,30.20,SW,215,0.0,-999.0,86,-99.99,,,0.00,weatherlink.com 1.10,2013-05-27 09:50:00,
2013-05-27 05:05:00,61.4,56.0,30.20,SW,215,0.0,-999.0,81,-99.99,,,0.00,weatherlink.com 1.10,2013-05-27 10:05:00,
2013-05-27 05:20:00,62.2,56.0,30.20,SW,215,0.0,-999.0,79,-99.99,,,0.00,weatherlink.com 1.10,2013-05-27 10:20:00,
2013-05-27 05:35:00,62.0,56.0,30.21,SW,215,0.0,-999.0,82,-99.99,,,0.00,weatherlink.com 1.10,2013-05-27 10:35:00,
2013-05-27 05:50:00,61.4,57.0,30.21,SW,215,0.0,-999.0,85,-99.99,,,0.00,weatherlink.com 1.10,2013-05-27 10:50:00,
2013-05-27 06:05:00,60.6,56.0,30.22,NNW,346,0.0,-999.0,85,-99.99,,,0.00,weatherlink.com 1.10,2013-05-27 11:05:00,
2013-05-27 06:20:00,59.9,56.0,30.22,NNW,346,0.0,-999.0,87,-99.99,,,0.00,weatherlink.com 1.10,2013-05-27 11:20:00,
2013-05-27 06:35:00,60.8,56.0,30.24,SSW,201,1.0,-999.0,85,-99.99,,,0.00,weatherlink.com 1.10,2013-05-27 11:35:00,
2013-05-27 06:50:00,62.2,57.0,30.23,South,178,0.0,-999.0,83,-99.99,,,0.00,weatherlink.com 1.10,2013-05-27 11:50:00,
2013-05-27 07:05:00,64.3,58.0,30.24,South,184,2.0,-999.0,79,-99.99,,,0.00,weatherlink.com 1.10,2013-05-27 12:05:00,
2013-05-27 07:20:00,65.2,58.0,30.24,SSE,161,1.0,-999.0,78,-99.99,,,0.00,weatherlink.com 1.10,2013-05-27 12:20:00,
2013-05-27 07:35:00,65.5,58.0,30.24,SE,136,0.0,-999.0,77,-99.99,,,0.00,weatherlink.com 1.10,2013-05-27 12:35:00,
2013-05-27 07:50:00,67.2,59.0,30.24,SE,136,0.0,-999.0,75,-99.99,,,0.00,weatherlink.com 1.10,2013-05-27 12:50:00,
2013-05-27 08:05:00,69.3,60.0,30.24,SE,140,0.0,-999.0,72,-99.99,,,0.00,weatherlink.com 1.10,2013-05-27 13:05:00,
2013-05-27 08:20:00,70.0,61.0,30.23,SE,140,2.0,-999.0,72,-99.99,,,0.00,weatherlink.com 1.10,2013-05-27 13:20:00,
2013-05-27 08:35:00,71.0,61.0,30.23,SE,140,2.0,-999.0,70,-99.99,,,0.00,weatherlink.com 1.10,2013-05-27 13:35:00,
2013-05-27 08:50:00,71.7,61.0,30.23,SE,126,1.0,-999.0,68,-99.99,,,0.00,weatherlink.com 1.10,2013-05-27 13:50:00,
2013-05-27 09:05:00,72.4,62.0,30.23,ESE,115,4.0,-999.0,70,-99.99,,,0.00,weatherlink.com 1.10,2013-05-27 14:05:00,
2013-05-27 09:20:00,73.6,62.0,30.23,ESE,107,4.0,-999.0,68,-99.99,,,0.00,weatherlink.com 1.10,2013-05-27 14:20:00,
2013-05-27 09:35:00,74.7,62.0,30.22,SSE,148,4.0,-999.0,64,-99.99,,,0.00,weatherlink.com 1.10,2013-05-27 14:35:00,
2013-05-27 09:50:00,76.0,62.0,30.21,SE,144,7.0,-999.0,62,-99.99,,,0.00,weatherlink.com 1.10,2013-05-27 14:50:00,
2013-05-27 10:05:00,77.0,62.0,30.21,SE,133,7.0,-999.0,60,-99.99,,,0.00,weatherlink.com 1.10,2013-05-27 15:05:00,
2013-05-27 10:20:00,77.5,61.0,30.20,South,184,7.0,-999.0,58,-99.99,,,0.00,weatherlink.com 1.10,2013-05-27 15:20:00,
2013-05-27 10:35:00,77.7,62.0,30.20,SE,143,6.0,-999.0,59,-99.99,,,0.00,weatherlink.com 1.10,2013-05-27 15:35:00,
2013-05-27 10:50:00,79.2,59.0,30.20,SSE,148,5.0,-999.0,51,-99.99,,,0.00,weatherlink.com 1.10,2013-05-27 15:50:00,
2013-05-27 11:05:00,80.0,60.0,30.20,SW,229,5.0,-999.0,50,-99.99,,,0.00,weatherlink.com 1.10,2013-05-27 16:05:00,
2013-05-27 11:20:00,80.9,59.0,30.20,SW,218,8.0,-999.0,47,-99.99,,,0.00,weatherlink.com 1.10,2013-05-27 16:20:00,
2013-05-27 11:35:00,80.9,59.0,30.20,SW,215,12.0,-999.0,48,-99.99,,,0.00,weatherlink.com 1.10,2013-05-27 16:35:00,
2013-05-27 11:50:00,80.7,59.0,30.19,South,178,6.0,-999.0,47,-99.99,,,0.00,weatherlink.com 1.10,2013-05-27 16:50:00,
2013-05-27 12:05:00,81.0,60.0,30.19,SW,219,4.0,-999.0,49,-99.99,,,0.00,weatherlink.com 1.10,2013-05-27 17:05:00,
2013-05-27 12:20:00,81.2,61.0,30.19,South,188,8.0,-999.0,50,-99.99,,,0.00,weatherlink.com 1.10,2013-05-27 17:20:00,
2013-05-27 12:35:00,80.7,60.0,30.18,South,169,6.0,-999.0,50,-99.99,,,0.00,weatherlink.com 1.10,2013-05-27 17:35:00,
2013-05-27 12:50:00,80.2,62.0,30.18,South,185,10.0,-999.0,54,-99.99,,,0.00,weatherlink.com 1.10,2013-05-27 17:50:00,
2013-05-27 13:05:00,81.0,62.0,30.17,South,173,8.0,-999.0,53,-99.99,,,0.00,weatherlink.com 1.10,2013-05-27 18:05:00,
2013-05-27 13:21:00,81.2,62.0,30.17,South,178,8.0,-999.0,53,-99.99,,,0.00,weatherlink.com 1.10,2013-05-27 18:21:00,
2013-05-27 13:36:00,81.2,61.0,30.16,SSE,159,5.0,-999.0,51,-99.99,,,0.00,weatherlink.com 1.10,2013-05-27 18:36:00,
2013-05-27 13:51:00,81.0,61.0,30.16,SW,224,10.0,-999.0,51,-99.99,,,0.00,weatherlink.com 1.10,2013-05-27 18:51:00,
2013-05-27 14:06:00,81.1,62.0,30.16,South,186,5.0,-999.0,52,-99.99,,,0.00,weatherlink.com 1.10,2013-05-27 19:06:00,
2013-05-27 14:21:00,81.7,61.0,30.15,SSW,205,4.0,-999.0,49,-99.99,,,0.00,weatherlink.com 1.10,2013-05-27 19:21:00,
2013-05-27 14:36:00,81.3,61.0,30.15,SSW,207,10.0,-999.0,50,-99.99,,,0.00,weatherlink.com 1.10,2013-05-27 19:36:00,
2013-05-27 14:51:00,82.4,61.0,30.15,SSW,199,11.0,-999.0,49,-99.99,,,0.00,weatherlink.com 1.10,2013-05-27 19:51:00,
2013-05-27 15:06:00,81.8,63.0,30.15,SSW,200,9.0,-999.0,53,-99.99,,,0.00,weatherlink.com 1.10,2013-05-27 20:06:00,
2013-05-27 15:21:00,83.2,61.0,30.14,SE,140,9.0,-999.0,48,-99.99,,,0.00,weatherlink.com 1.10,2013-05-27 20:21:00,
2013-05-27 15:36:00,81.5,60.0,30.14,South,189,9.0,-999.0,49,-99.99,,,0.00,weatherlink.com 1.10,2013-05-27 20:36:00,
2013-05-27 15:51:00,81.8,60.0,30.14,South,178,6.0,-999.0,47,-99.99,,,0.00,weatherlink.com 1.10,2013-05-27 20:51:00,
2013-05-27 16:06:00,81.3,61.0,30.14,WSW,238,8.0,-999.0,51,-99.99,,,0.00,weatherlink.com 1.10,2013-05-27 21:06:00,
2013-05-27 16:21:00,81.3,60.0,30.14,SW,232,11.0,-999.0,48,-99.99,,,0.00,weatherlink.com 1.10,2013-05-27 21:21:00,
2013-05-27 16:36:00,81.6,62.0,30.14,SW,221,8.0,-999.0,51,-99.99,,,0.00,weatherlink.com 1.10,2013-05-27 21:36:00,
2013-05-27 16:51:00,81.6,61.0,30.14,SSW,205,7.0,-999.0,49,-99.99,,,0.00,weatherlink.com 1.10,2013-05-27 21:51:00,
2013-05-27 17:06:00,82.1,61.0,30.14,SSE,152,7.0,-999.0,49,-99.99,,,0.00,weatherlink.com 1.10,2013-05-27 22:06:00,
2013-05-27 17:21:00,81.2,61.0,30.13,SSE,155,7.0,-999.0,51,-99.99,,,0.00,weatherlink.com 1.10,2013-05-27 22:21:00,
2013-05-27 17:36:00,80.2,61.0,30.13,SSE,156,2.0,-999.0,53,-99.99,,,0.00,weatherlink.com 1.10,2013-05-27 22:36:00,
2013-05-27 17:51:00,79.7,62.0,30.13,South,182,3.0,-999.0,55,-99.99,,,0.00,weatherlink.com 1.10,2013-05-27 22:51:00,
2013-05-27 18:06:00,79.1,62.0,30.13,South,188,0.0,-999.0,56,-99.99,,,0.00,weatherlink.com 1.10,2013-05-27 23:06:00,
2013-05-27 18:21:00,78.6,62.0,30.13,South,191,6.0,-999.0,56,-99.99,,,0.00,weatherlink.com 1.10,2013-05-27 23:21:00,
2013-05-27 18:36:00,78.4,61.0,30.12,SSW,192,2.0,-999.0,56,-99.99,,,0.00,weatherlink.com 1.10,2013-05-27 23:36:00,
2013-05-27 18:51:00,78.4,62.0,30.12,SSW,205,4.0,-999.0,57,-99.99,,,0.00,weatherlink.com 1.10,2013-05-27 23:51:00,
2013-05-27 19:06:00,78.4,62.0,30.12,South,188,0.0,-999.0,57,-99.99,,,0.00,weatherlink.com 1.10,2013-05-28 00:06:00,
2013-05-27 19:21:00,77.9,62.0,30.12,South,188,0.0,-999.0,59,-99.99,,,0.00,weatherlink.com 1.10,2013-05-28 00:21:00,
2013-05-27 19:36:00,77.1,62.0,30.12,South,188,1.0,-999.0,60,-99.99,,,0.00,weatherlink.com 1.10,2013-05-28 00:36:00,
2013-05-27 19:51:00,76.3,62.0,30.12,South,188,0.0,-999.0,62,-99.99,,,0.00,weatherlink.com 1.10,2013-05-28 00:51:00,
2013-05-27 20:06:00,75.5,62.0,30.12,South,188,0.0,-999.0,64,-99.99,,,0.00,weatherlink.com 1.10,2013-05-28 01:06:00,
2013-05-27 20:21:00,74.8,62.0,30.12,South,188,0.0,-999.0,65,-99.99,,,0.00,weatherlink.com 1.10,2013-05-28 01:21:00,
2013-05-27 20:36:00,74.0,62.0,30.12,South,188,0.0,-999.0,66,-99.99,,,0.00,weatherlink.com 1.10,2013-05-28 01:36:00,
2013-05-27 20:51:00,74.0,61.0,30.12,South,188,0.0,-999.0,64,-99.99,,,0.00,weatherlink.com 1.10,2013-05-28 01:51:00,
2013-05-27 21:06:00,73.5,61.0,30.12,SSE,163,0.0,-999.0,66,-99.99,,,0.00,weatherlink.com 1.10,2013-05-28 02:06:00,
2013-05-27 21:21:00,73.0,61.0,30.13,SSE,163,0.0,-999.0,66,-99.99,,,0.00,weatherlink.com 1.10,2013-05-28 02:21:00,
2013-05-27 21:36:00,72.9,61.0,30.13,SSE,163,0.0,-999.0,66,-99.99,,,0.00,weatherlink.com 1.10,2013-05-28 02:36:00,
2013-05-27 21:51:00,72.5,60.0,30.14,SSE,155,1.0,-999.0,66,-99.99,,,0.00,weatherlink.com 1.10,2013-05-28 02:51:00,
2013-05-27 22:06:00,72.1,61.0,30.14,SSE,151,0.0,-999.0,68,-99.99,,,0.00,weatherlink.com 1.10,2013-05-28 03:06:00,
2013-05-27 22:22:00,71.8,61.0,30.14,SSE,158,0.0,-999.0,69,-99.99,,,0.00,weatherlink.com 1.10,2013-05-28 03:22:00,
2013-05-27 22:37:00,71.7,61.0,30.14,SSE,157,1.0,-999.0,69,-99.99,,,0.00,weatherlink.com 1.10,2013-05-28 03:37:00,
2013-05-27 22:52:00,71.5,62.0,30.14,SSE,168,0.0,-999.0,71,-99.99,,,0.00,weatherlink.com 1.10,2013-05-28 03:52:00,
2013-05-27 23:07:00,71.4,62.0,30.15,SSE,168,1.0,-999.0,71,-99.99,,,0.00,weatherlink.com 1.10,2013-05-28 04:07:00,
2013-05-27 23:22:00,71.2,62.0,30.14,SSE,155,0.0,-999.0,72,-99.99,,,0.00,weatherlink.com 1.10,2013-05-28 04:22:00,
2013-05-27 23:37:00,70.9,62.0,30.14,SSE,160,4.0,-999.0,73,-99.99,,,0.00,weatherlink.com 1.10,2013-05-28 04:37:00,
2013-05-27 23:52:00,70.9,61.0,30.14,SSE,163,0.0,-999.0,72,-99.99,,,0.00,weatherlink.com 1.10,2013-05-28 04:52:00,